Tiempo atmosférico en la estación meteorológica de Llucmajor, Puig d?Escorca, Illes Balears (113 m.)



Fecha
DESCASC
Temp. máxima en grados centígrados (hora)
DESCASC
Temp. mínima en grados centígrados (hora)
DESCASC
Temp. media en grados centígrados
DESCASC
Racha de viento máxima en m/sg (hora)
DESCASC
Velocidad máxima media en intervalos de 10 minutos(hora)
DESCASC
Precipitaciones diarias en mm
DESCASC
Precipitaciones de 00:00 a 06:00 en mm
DESCASC
Precipitaciones de 06:00 a 12:00 en mm
DESCASC
Precipitaciones de 12:00 a 18:00 en mm
DESCASC
Precipitaciones de 18:00 a 24:00 en mm
DESCASC

Gráficas

Temp. máximas Temp. mínimas Temp. medias Precipitaciones Rachas de viento máximas Velocidades máximas media en intervalos de 10 minutos

Datos horarios

Fecha y hora oficial Temperatura (ºC) Velocidad del viento (km/h) Dirección del viento Racha (km/h) Dirección de racha Precipitación (mm) Presión (hPa) Tendencia (hPa) Humedad (%)
2019-10-14 23:00:00 20.4 12 Sudeste 28 Sudeste 0 -- -- 93
2019-10-14 22:00:00 20.6 16 Este 27 Este 0 -- -- 92
2019-10-14 21:00:00 20.6 17 Este 26 Este 1.2 -- -- 90
2019-10-14 20:00:00 22.5 8 Sudoeste 15 Sudoeste 2 -- -- 80
2019-10-14 19:00:00 23.2 0 Calma 16 Oeste 0 -- -- 77
2019-10-14 18:00:00 25.4 7 Sudoeste 14 Sudoeste 0 -- -- 65
2019-10-14 17:00:00 24.6 8 Sudeste 19 Sudeste 0 -- -- 79
2019-10-14 16:00:00 24.4 12 Sudeste 32 Este 0 -- -- 81
2019-10-14 15:00:00 24.3 20 Sudeste 31 Sudeste 0 -- -- 79
2019-10-14 14:00:00 26.5 21 Sudeste 32 Este 0 -- -- 69
2019-10-14 13:00:00 27.3 24 Sudeste 37 Sudeste 0 -- -- 60
2019-10-14 12:00:00 26.8 17 Este 27 Este 0 -- -- 65
2019-10-14 11:00:00 24.3 11 Este 19 Este 0 -- -- 95
2019-10-14 10:00:00 22.3 8 Nordeste 12 Nordeste 0 -- -- 96
2019-10-14 09:00:00 20 8 Nordeste 15 Nordeste 0 -- -- 99
2019-10-14 08:00:00 18.8 10 Este 27 Nordeste 0 -- -- 99
2019-10-14 07:00:00 18.3 13 Nordeste 18 Nordeste 0 -- -- 98
2019-10-14 06:00:00 19 7 Norte 9 Nordeste 0 -- -- 98
2019-10-14 05:00:00 19.3 8 Nordeste 12 Nordeste 0 -- -- 98
2019-10-14 04:00:00 19.8 5 Nordeste 9 Nordeste 0 -- -- 97
2019-10-14 03:00:00 20.2 5 Nordeste 8 Nordeste 0 -- -- 96
2019-10-14 02:00:00 20.5 5 Este 16 Este 0 -- -- 95
2019-10-14 01:00:00 20.1 12 Este 19 Nordeste 0 -- -- 94
2019-10-14 00:00:00 20.6 13 Nordeste 20 Nordeste 0 -- -- 93
2019-10-13 23:00:00 20.7 13 Este 20 Este 0 -- -- 91
2019-10-13 22:00:00 20.8 12 Nordeste 21 Nordeste 0 -- -- 89
2019-10-13 21:00:00 21.3 12 Nordeste 19 Este 0 -- -- 87
2019-10-13 20:00:00 22.3 11 Este 24 Este 0 -- -- 84
2019-10-13 19:00:00 23.8 15 Este 30 Este 0 -- -- 77
2019-10-13 18:00:00 26.1 18 Este 27 Este 0 -- -- 68
2019-10-13 17:00:00 26.7 19 Este 30 Este 0 -- -- 68
2019-10-13 16:00:00 26.7 22 Este 36 Este 0 -- -- 68
2019-10-13 15:00:00 26.6 24 Sudeste 34 Este 0 -- -- 68
2019-10-13 14:00:00 27.3 17 Sudeste 31 Este 0 -- -- 65
2019-10-13 13:00:00 26.9 17 Este 35 Este 0 -- -- 66
2019-10-13 12:00:00 26.4 21 Este 36 Sudeste 0 -- -- 69
2019-10-13 11:00:00 24.2 19 Este 31 Este 0 -- -- 81
2019-10-13 10:00:00 23.4 19 Este 31 Este 0 -- -- 91
2019-10-13 09:00:00 20.9 17 Este 27 Este 0 -- -- 95
2019-10-13 08:00:00 18.9 12 Nordeste 19 Nordeste 0 -- -- 95
2019-10-13 07:00:00 19.4 12 Nordeste 18 Nordeste 0 -- -- 95
2019-10-13 06:00:00 19.4 10 Nordeste 17 Nordeste 0 -- -- 94
2019-10-13 05:00:00 19.3 9 Nordeste 15 Nordeste 0 -- -- 94
2019-10-13 04:00:00 19.8 11 Este 22 Este 0 -- -- 94
2019-10-13 03:00:00 19.9 11 Este 17 Este 0 -- -- 93
2019-10-13 02:00:00 19.8 10 Este 16 Este 0 -- -- 92
2019-10-13 01:00:00 19.8 13 Este 23 Nordeste 0 -- -- 92
2019-10-13 00:00:00 19.8 13 Este 21 Este 0 -- -- 91
2019-10-12 23:00:00 20.3 15 Este 24 Este 0 -- -- 89
2019-10-12 22:00:00 20.6 12 Este 28 Este 0 -- -- 88
2019-10-12 21:00:00 21.1 13 Este 21 Este 0 -- -- 85
2019-10-12 20:00:00 21.7 16 Este 32 Este 0 -- -- 83
2019-10-12 19:00:00 22.3 21 Este 31 Este 0 -- -- 80
2019-10-12 18:00:00 23.8 18 Sudeste 33 Este 0 -- -- 77
2019-10-12 17:00:00 25.1 17 Sudeste 32 Este 0 -- -- 72
2019-10-12 16:00:00 25.1 18 Sudeste 34 Este 0 -- -- 71
2019-10-12 15:00:00 25.3 18 Sudeste 35 Este 0 -- -- 69
2019-10-12 14:00:00 25.4 22 Sudeste 49 Sudeste 0 -- -- 70
2019-10-12 13:00:00 24.9 25 Sudeste 38 Este 0 -- -- 71
2019-10-12 12:00:00 24.6 19 Este 34 Este 0 -- -- 71
2019-10-12 11:00:00 23.2 20 Este 32 Este 0 -- -- 77
2019-10-12 10:00:00 22.3 15 Este 26 Nordeste 0 -- -- 84
2019-10-12 09:00:00 19.2 11 Nordeste 20 Nordeste 0 -- -- 90
2019-10-12 08:00:00 18.1 12 Nordeste 20 Este 0 -- -- 90
2019-10-12 07:00:00 18 12 Nordeste 18 Nordeste 0 -- -- 90
2019-10-12 06:00:00 18.2 10 Nordeste 18 Nordeste 0 -- -- 90
2019-10-12 05:00:00 18.2 11 Nordeste 16 Nordeste 0 -- -- 89
2019-10-12 04:00:00 18.6 10 Nordeste 20 Nordeste 0 -- -- 88
2019-10-12 03:00:00 19 12 Este 23 Este 0 -- -- 88
2019-10-12 02:00:00 18.9 13 Este 22 Este 0 -- -- 89
2019-10-12 01:00:00 19 14 Este 21 Este 0 -- -- 89
2019-10-12 00:00:00 19 12 Este 21 Este 0 -- -- 89
2019-10-11 23:00:00 19.4 14 Este 21 Este 0 -- -- 87
2019-10-11 22:00:00 19.6 13 Este 22 Este 0 -- -- 86
2019-10-11 21:00:00 20.5 15 Este 26 Este 0 -- -- 83
2019-10-11 20:00:00 21.1 16 Este 27 Este 0 -- -- 80
2019-10-11 19:00:00 21.8 17 Sudeste 30 Sudeste 0 -- -- 77
2019-10-11 18:00:00 23.8 16 Sudeste 28 Este 0 -- -- 70
2019-10-11 17:00:00 24.5 15 Sudeste 29 Sudeste 0 -- -- 68
2019-10-11 16:00:00 24.3 17 Sudeste 28 Sudeste 0 -- -- 68
2019-10-11 15:00:00 24.8 15 Sudeste 32 Sudeste 0 -- -- 67
2019-10-11 14:00:00 24.8 14 Sudeste 27 Sudeste 0 -- -- 66
2019-10-11 13:00:00 24.9 15 Sudeste 26 Sudeste 0 -- -- 65
2019-10-11 12:00:00 24.4 14 Sudeste 25 Sudeste 0 -- -- 70
2019-10-11 11:00:00 23.1 16 Sudeste 26 Este 0 -- -- 71
2019-10-11 10:00:00 23 11 Este 20 Este 0 -- -- 79
2019-10-11 09:00:00 19 9 Nordeste 14 Nordeste 0 -- -- 89
2019-10-11 08:00:00 16.4 9 Nordeste 16 Nordeste 0 -- -- 91
2019-10-11 07:00:00 16.4 8 Nordeste 13 Nordeste 0 -- -- 91
2019-10-11 06:00:00 16.4 8 Nordeste 12 Nordeste 0 -- -- 90
2019-10-11 05:00:00 16.8 8 Nordeste 11 Nordeste 0 -- -- 88
2019-10-11 04:00:00 17.1 6 Nordeste 12 Nordeste 0 -- -- 87
2019-10-11 03:00:00 16.9 7 Nordeste 12 Nordeste 0 -- -- 87
2019-10-11 02:00:00 16.7 8 Nordeste 12 Nordeste 0 -- -- 85
2019-10-11 01:00:00 17.4 9 Nordeste 13 Este 0 -- -- 84
2019-10-11 00:00:00 17.6 10 Nordeste 15 Este 0 -- -- 82
2019-10-10 23:00:00 17.6 10 Nordeste 15 Nordeste 0 -- -- 81
2019-10-10 22:00:00 18.1 9 Nordeste 14 Este 0 -- -- 79
2019-10-10 21:00:00 18.8 9 Este 16 Este 0 -- -- 76
2019-10-10 20:00:00 19.9 11 Este 22 Este 0 -- -- 72
2019-10-10 19:00:00 21 16 Este 24 Este 0 -- -- 68
2019-10-10 18:00:00 21.6 17 Sudeste 33 Este 0 -- -- 66
2019-10-10 17:00:00 22.5 18 Sudeste 29 Este 0 -- -- 63
2019-10-10 16:00:00 22.6 18 Sudeste 32 Sudeste 0 -- -- 67
2019-10-10 15:00:00 21.8 16 Este 27 Este 0.4 -- -- 81
2019-10-10 14:00:00 23.5 12 Sudeste 22 Sudeste 0 -- -- 67
2019-10-10 13:00:00 25 13 Sudeste 27 Este 0 -- -- 62
2019-10-10 12:00:00 24.9 15 Este 28 Este 0 -- -- 64
2019-10-10 11:00:00 23.4 15 Este 25 Este 0 -- -- 69
2019-10-10 10:00:00 24 10 Nordeste 22 Este 0 -- -- 70
2019-10-10 09:00:00 20.6 9 Nordeste 16 Nordeste 0 -- -- 86
2019-10-10 08:00:00 17.6 11 Nordeste 17 Nordeste 0 -- -- 88
2019-10-10 07:00:00 17.5 11 Nordeste 16 Nordeste 0 -- -- 85
2019-10-10 06:00:00 17.8 11 Nordeste 17 Nordeste 0 -- -- 85
2019-10-10 05:00:00 17.9 10 Nordeste 16 Nordeste 0 -- -- 85
2019-10-10 04:00:00 18.4 9 Nordeste 14 Nordeste 0 -- -- 84
2019-10-10 03:00:00 18.9 9 Nordeste 14 Nordeste 0 -- -- 84
2019-10-10 02:00:00 19.6 8 Nordeste 13 Nordeste 0 -- -- 82
2019-10-10 01:00:00 19.4 7 Nordeste 12 Nordeste 0 -- -- 82
2019-10-10 00:00:00 19.5 8 Nordeste 13 Nordeste 0 -- -- 81
2019-10-09 23:00:00 20 6 Nordeste 10 Este 0 -- -- 77
2019-10-09 22:00:00 20.7 3 Sudeste 5 Nordeste 0 -- -- 74
2019-10-09 21:00:00 21.1 4 Nordeste 5 Nordeste 0 -- -- 72
2019-10-09 20:00:00 21.4 0 Calma 5 Sur 0 -- -- 71
2019-10-09 19:00:00 22.6 3 Sudoeste 14 Sur 0 -- -- 66
2019-10-09 18:00:00 25.2 9 Sur 15 Sudoeste 0 -- -- 60
2019-10-09 17:00:00 25.9 8 Sudoeste 18 Sudoeste 0 -- -- 56
2019-10-09 16:00:00 25.5 12 Sur 19 Sudeste 0 -- -- 57
2019-10-09 15:00:00 25.6 9 Sudoeste 18 Sur 0 -- -- 58
2019-10-09 14:00:00 26.1 8 Sudoeste 18 Sudoeste 0 -- -- 57
2019-10-09 13:00:00 26 10 Sudoeste 20 Sudeste 0 -- -- 57
2019-10-09 12:00:00 24.4 9 Sudeste 20 Sudeste 0 -- -- 63
2019-10-09 11:00:00 23.1 9 Sudeste 17 Sudeste 0 -- -- 64
2019-10-09 10:00:00 25.1 4 Este 12 Este 0 -- -- 60
2019-10-09 09:00:00 20.1 5 Nordeste 9 Nordeste 0 -- -- 71
2019-10-09 08:00:00 16.2 6 Nordeste 9 Nordeste 0 -- -- 81
2019-10-09 07:00:00 16.1 7 Nordeste 10 Norte 0 -- -- 82
2019-10-09 06:00:00 15.9 6 Nordeste 10 Nordeste 0 -- -- 80
2019-10-09 05:00:00 16.7 7 Este 12 Este 0 -- -- 76
2019-10-09 04:00:00 16.8 6 Este 15 Sudeste 0 -- -- 72
2019-10-09 03:00:00 18.6 6 Sudeste 14 Sudeste 0 -- -- 69
2019-10-09 02:00:00 19.8 9 Sudeste 17 Sudeste 0 -- -- 66
2019-10-09 01:00:00 20.3 10 Sudeste 19 Sudeste 0 -- -- 64
2019-10-09 00:00:00 20.2 11 Sudeste 16 Sur 0 -- -- 63
2019-10-08 23:00:00 20.2 10 Sur 15 Sur 0 -- -- 62
2019-10-08 22:00:00 20.3 8 Sur 15 Sur 0 -- -- 61
2019-10-08 21:00:00 20.5 9 Sur 16 Sudoeste 0 -- -- 61
2019-10-08 20:00:00 20.6 8 Sur 16 Sudoeste 0 -- -- 61
2019-10-08 19:00:00 21.6 11 Sudoeste 19 Sudoeste 0 -- -- 59
2019-10-08 18:00:00 25 10 Sudoeste 20 Sudoeste 0 -- -- 51
2019-10-08 17:00:00 25.9 10 Sudoeste 21 Sudoeste 0 -- -- 50
2019-10-08 16:00:00 24.6 12 Sudoeste 21 Sudoeste 0 -- -- 50
2019-10-08 15:00:00 24.5 13 Sudoeste 22 Sur 0 -- -- 54
2019-10-08 14:00:00 24.2 11 Sudoeste 19 Sur 0 -- -- 53
2019-10-08 13:00:00 23.9 13 Sur 21 Sur 0 -- -- 53
2019-10-08 12:00:00 23.6 13 Sudeste 21 Sudeste 0 -- -- 52
2019-10-08 11:00:00 22.6 7 Este 17 Este 0 -- -- 52
2019-10-08 10:00:00 23.5 7 Este 12 Nordeste 0 -- -- 50
2019-10-08 09:00:00 19.8 6 Norte 10 Norte 0 -- -- 57
2019-10-08 08:00:00 16 8 Norte 12 Norte 0 -- -- 60
2019-10-08 07:00:00 16.4 8 Norte 12 Norte 0 -- -- 59
2019-10-08 06:00:00 16.2 9 Norte 17 Norte 0 -- -- 60
2019-10-08 05:00:00 16.5 12 Norte 17 Norte 0 -- -- 66
2019-10-08 04:00:00 16.6 10 Norte 13 Noroeste 0 -- -- 67
2019-10-08 03:00:00 16.9 8 Norte 14 Norte 0 -- -- 71
2019-10-08 02:00:00 17.1 10 Norte 16 Norte 0 -- -- 79
2019-10-08 01:00:00 16.5 13 Nordeste 22 Nordeste 0 -- -- 81
2019-10-08 00:00:00 16.7 12 Nordeste 22 Nordeste 0 -- -- 81
2019-10-07 23:00:00 17.2 10 Nordeste 17 Nordeste 0 -- -- 77
2019-10-07 22:00:00 17.8 10 Nordeste 16 Este 0 -- -- 73
2019-10-07 21:00:00 18.7 9 Este 21 Nordeste 0 -- -- 69
2019-10-07 20:00:00 20.5 11 Este 21 Este 0 -- -- 62
2019-10-07 19:00:00 22.8 9 Noroeste 26 Oeste 0 -- -- 58
2019-10-07 18:00:00 25.2 12 Oeste 25 Oeste 0 -- -- 53
2019-10-07 17:00:00 24.5 15 Oeste 29 Oeste 0 -- -- 56
2019-10-07 16:00:00 23.2 17 Oeste 30 Oeste 0 -- -- 56
2019-10-07 15:00:00 24.6 15 Oeste 22 Oeste 0 -- -- 49
2019-10-07 14:00:00 25.6 10 Norte 28 Nordeste 0 -- -- 46
2019-10-07 13:00:00 25.4 14 Este 34 Este 0 -- -- 45
2019-10-07 12:00:00 23.6 17 Nordeste 35 Nordeste 0 -- -- 52
2019-10-07 11:00:00 21.6 16 Nordeste 33 Nordeste 0 -- -- 61
2019-10-07 10:00:00 20 22 Nordeste 39 Nordeste 0 -- -- 69
2019-10-07 09:00:00 21.2 8 Norte 35 Noroeste 0 -- -- 59
2019-10-07 08:00:00 19.9 11 Norte 33 Norte 0 -- -- 58
2019-10-07 07:00:00 20.8 18 Noroeste 34 Noroeste 0 -- -- 59
2019-10-07 06:00:00 20.7 13 Noroeste 27 Noroeste 0 -- -- 67
2019-10-07 05:00:00 21.1 12 Noroeste 27 Noroeste 0 -- -- 70
2019-10-07 04:00:00 20.8 12 Noroeste 19 Noroeste 0 -- -- 83
2019-10-07 03:00:00 20 9 Oeste 15 Oeste 0 -- -- 81
2019-10-07 02:00:00 20.2 9 Noroeste 16 Noroeste 0 -- -- 85
2019-10-07 01:00:00 19.9 9 Noroeste 14 Noroeste 0 -- -- 84
2019-10-07 00:00:00 20.9 7 Oeste 19 Oeste 0 -- -- 78
2019-10-06 23:00:00 21.3 11 Oeste 20 Oeste 0 -- -- 78
2019-10-06 22:00:00 21.5 10 Oeste 19 Oeste 0 -- -- 81
2019-10-06 21:00:00 21.7 10 Oeste 18 Sudoeste 0 -- -- 80
2019-10-06 20:00:00 21.8 9 Oeste 15 Oeste 0 -- -- 79
2019-10-06 19:00:00 22.9 7 Oeste 14 Sudoeste 0 -- -- 74
2019-10-06 18:00:00 24.5 11 Oeste 20 Sudoeste 0 -- -- 70
2019-10-06 17:00:00 26.3 11 Sudoeste 21 Oeste 0 -- -- 68
2019-10-06 16:00:00 25.7 14 Oeste 24 Sudoeste 0 -- -- 69
2019-10-06 15:00:00 26.7 13 Oeste 20 Sudoeste 0 -- -- 65
2019-10-06 14:00:00 26.5 12 Sudoeste 20 Sudoeste 0 -- -- 66
2019-10-06 13:00:00 26 10 Oeste 19 Noroeste 0 -- -- 67
2019-10-06 12:00:00 26.1 9 Sudoeste 18 Sudoeste 0 -- -- 69
2019-10-06 11:00:00 25 8 Sudeste 15 Sur 0 -- -- 67
2019-10-06 10:00:00 25.9 4 Este 8 Este 0 -- -- 72
2019-10-06 09:00:00 22.2 5 Nordeste 12 Nordeste 0 -- -- 92
2019-10-06 08:00:00 18 9 Nordeste 14 Norte 0 -- -- 96
2019-10-06 07:00:00 18 9 Norte 11 Nordeste 0 -- -- 96
2019-10-06 06:00:00 18.2 8 Norte 10 Nordeste 0 -- -- 95
2019-10-06 05:00:00 18.3 8 Nordeste 10 Nordeste 0 -- -- 95
2019-10-06 04:00:00 18.3 7 Nordeste 10 Nordeste 0 -- -- 94
2019-10-06 03:00:00 18.7 7 Nordeste 11 Nordeste 0 -- -- 94
2019-10-06 02:00:00 19.1 8 Este 12 Nordeste 0 -- -- 93
2019-10-06 01:00:00 18.6 7 Nordeste 12 Nordeste 0 -- -- 92
2019-10-06 00:00:00 18.8 8 Nordeste 12 Nordeste 0 -- -- 91
2019-10-05 23:00:00 19.4 7 Nordeste 12 Nordeste 0 -- -- 89
2019-10-05 22:00:00 20 8 Nordeste 12 Este 0 -- -- 87
2019-10-05 21:00:00 20.5 8 Este 13 Este 0 -- -- 85
2019-10-05 20:00:00 21.6 8 Sudeste 12 Este 0 -- -- 82
2019-10-05 19:00:00 23.4 8 Sudeste 18 Sur 0 -- -- 75
2019-10-05 18:00:00 25.1 12 Sudeste 22 Sudeste 0 -- -- 69
2019-10-05 17:00:00 25.5 14 Sudeste 25 Sudeste 0 -- -- 67
2019-10-05 16:00:00 26.3 14 Sudeste 24 Este 0 -- -- 66
2019-10-05 15:00:00 26.3 12 Sudeste 24 Sur 0 -- -- 66
2019-10-05 14:00:00 26.1 13 Sudeste 21 Sudeste 0 -- -- 67
2019-10-05 13:00:00 26.2 13 Sudeste 19 Sudeste 0 -- -- 65
2019-10-05 12:00:00 25.7 9 Sudeste 14 Sudeste 0 -- -- 67
2019-10-05 11:00:00 24.7 4 Este 13 Nordeste 0 -- -- 75
2019-10-05 10:00:00 25.1 6 Nordeste 10 Nordeste 0 -- -- 83
2019-10-05 09:00:00 21.2 5 Nordeste 10 Nordeste 0 -- -- 91
2019-10-05 08:00:00 18.1 8 Nordeste 12 Nordeste 0 -- -- 93
2019-10-05 07:00:00 17.9 9 Nordeste 13 Nordeste 0 -- -- 91
2019-10-05 06:00:00 20.4 3 Sudoeste 10 Sudoeste 0 -- -- 89
2019-10-05 05:00:00 20.7 5 Sudoeste 10 Sudoeste 0 -- -- 89
2019-10-05 04:00:00 20.4 6 Sur 12 Sudoeste 0 -- -- 89
2019-10-05 03:00:00 20.8 7 Sudoeste 14 Sudoeste 0 -- -- 88
2019-10-05 02:00:00 21.2 8 Sudoeste 16 Sudoeste 0 -- -- 88
2019-10-05 01:00:00 20.9 6 Sudoeste 11 Oeste 0 -- -- 88
2019-10-05 00:00:00 20.9 5 Sudoeste 15 Sudoeste 0 -- -- 85
2019-10-04 23:00:00 20.9 7 Sudoeste 15 Sudoeste 0 -- -- 81
2019-10-04 22:00:00 21.3 10 Sudoeste 19 Sudoeste 0 -- -- 78
2019-10-04 21:00:00 21.2 10 Sudoeste 17 Sudoeste 0 -- -- 72
2019-10-04 20:00:00 21.2 9 Sudoeste 14 Sudoeste 0 -- -- 70
2019-10-04 19:00:00 23.2 8 Sudoeste 17 Sudoeste 0 -- -- 63
2019-10-04 18:00:00 25.6 11 Sudoeste 19 Sudoeste 0 -- -- 55
2019-10-04 17:00:00 26.4 10 Sudoeste 19 Sur 0 -- -- 55
2019-10-04 16:00:00 25.8 12 Sudoeste 23 Sudoeste 0 -- -- 56
2019-10-04 15:00:00 24.9 13 Sur 25 Sudoeste 0 -- -- 60
2019-10-04 14:00:00 24.8 11 Sudoeste 20 Sudoeste 0 -- -- 61
2019-10-04 13:00:00 25.1 10 Sudoeste 19 Sudoeste 0 -- -- 57
2019-10-04 12:00:00 24 7 Sudoeste 13 Sur 0 -- -- 66
2019-10-04 11:00:00 22.5 6 Sudoeste 13 Sur 0 -- -- 68
2019-10-04 10:00:00 24.6 4 Sur 6 Sur 0 -- -- 69
2019-10-04 09:00:00 20.2 3 Nordeste 6 Nordeste 0 -- -- 90
2019-10-04 08:00:00 16.4 5 Este 8 Este 0 -- -- 94
2019-10-04 07:00:00 16.1 6 Nordeste 10 Este 0 -- -- 93
2019-10-04 06:00:00 16.6 9 Este 11 Este 0 -- -- 93
2019-10-04 05:00:00 16.4 8 Nordeste 12 Nordeste 0 -- -- 92
2019-10-04 04:00:00 16.7 8 Nordeste 11 Nordeste 0 -- -- 91
2019-10-04 03:00:00 17.1 6 Este 12 Nordeste 0 -- -- 91
2019-10-04 02:00:00 16.6 8 Nordeste 13 Nordeste 0 -- -- 90
2019-10-04 01:00:00 16.7 9 Nordeste 13 Nordeste 0 -- -- 88
2019-10-04 00:00:00 17.7 7 Nordeste 9 Este 0 -- -- 86
2019-10-03 23:00:00 17.9 5 Nordeste 9 Nordeste 0 -- -- 81
2019-10-03 22:00:00 18.3 7 Norte 10 Norte 0 -- -- 70
2019-10-03 21:00:00 19 9 Noroeste 16 Oeste 0 -- -- 69
2019-10-03 20:00:00 20.6 12 Oeste 24 Oeste 0 -- -- 65
2019-10-03 19:00:00 22.2 15 Oeste 30 Oeste 0 -- -- 58
2019-10-03 18:00:00 23.8 18 Oeste 31 Noroeste 0 -- -- 51
2019-10-03 17:00:00 24.5 19 Oeste 35 Oeste 0 -- -- 54
2019-10-03 16:00:00 25.5 19 Oeste 33 Oeste 0 -- -- 46
2019-10-03 15:00:00 25.3 17 Oeste 33 Oeste 0 -- -- 54
2019-10-03 14:00:00 25.4 18 Oeste 30 Oeste 0 -- -- 60
2019-10-03 13:00:00 25.2 16 Oeste 26 Oeste 0 -- -- 60
2019-10-03 12:00:00 24.3 14 Oeste 24 Oeste 0 -- -- 67
2019-10-03 11:00:00 22.9 10 Oeste 17 Noroeste 0 -- -- 71
2019-10-03 10:00:00 25.1 6 Sudoeste 14 Sudoeste 0 -- -- 66
2019-10-03 09:00:00 23.4 4 Sur 9 Sudoeste 0 -- -- 73
2019-10-03 08:00:00 17.1 8 Nordeste 14 Norte 0 -- -- 87
2019-10-03 07:00:00 17 11 Norte 14 Norte 0 -- -- 86
2019-10-03 06:00:00 19 4 Este 6 Este 0 -- -- 80
2019-10-03 05:00:00 17.4 4 Sur 10 Este 0 -- -- 88
2019-10-03 04:00:00 17.2 6 Este 14 Este 0 -- -- 88
2019-10-03 03:00:00 17.1 9 Nordeste 14 Este 0 -- -- 90
2019-10-03 02:00:00 17.1 10 Nordeste 15 Este 0 -- -- 91
2019-10-03 01:00:00 16.4 8 Nordeste 12 Nordeste 0 -- -- 90
2019-10-03 00:00:00 17 8 Nordeste 12 Nordeste 0 -- -- 89
2019-10-02 23:00:00 17.1 7 Nordeste 13 Nordeste 0 -- -- 88
2019-10-02 22:00:00 17.5 9 Nordeste 13 Nordeste 0 -- -- 87
2019-10-02 21:00:00 18.1 8 Nordeste 13 Nordeste 0 -- -- 84
2019-10-02 20:00:00 19.8 6 Este 10 Noroeste 0 -- -- 69
2019-10-02 19:00:00 22.4 10 Noroeste 19 Noroeste 0 -- -- 56
2019-10-02 18:00:00 23.9 10 Oeste 17 Oeste 0 -- -- 58
2019-10-02 17:00:00 25.1 9 Oeste 18 Oeste 0 -- -- 64
2019-10-02 16:00:00 24 10 Oeste 19 Sudoeste 0 -- -- 67
2019-10-02 15:00:00 22.9 10 Oeste 18 Oeste 0 -- -- 76
2019-10-02 14:00:00 20.2 7 Oeste 13 Nordeste 0 -- -- 89
2019-10-02 13:00:00 19 10 Nordeste 36 Este 10.6 -- -- 89
2019-10-02 12:00:00 23.5 16 Este 25 Este 0 -- -- 60
2019-10-02 11:00:00 23.6 15 Este 31 Este 0 -- -- 60
2019-10-02 10:00:00 24.8 16 Nordeste 27 Nordeste 0 -- -- 60
2019-10-02 09:00:00 22.1 14 Nordeste 27 Nordeste 0 -- -- 76
2019-10-02 08:00:00 19.7 14 Nordeste 25 Nordeste 0 -- -- 83
2019-10-02 07:00:00 20 15 Nordeste 36 Nordeste 0 -- -- 86
2019-10-02 06:00:00 20.1 19 Nordeste 32 Norte 0 -- -- 92
2019-10-02 05:00:00 20 10 Nordeste 15 Nordeste 0 -- -- 92
2019-10-02 04:00:00 20 6 Nordeste 10 Nordeste 0 -- -- 91
2019-10-02 03:00:00 20.8 8 Este 15 Norte 0 -- -- 89
2019-10-02 02:00:00 21.5 6 Norte 15 Sudoeste 0 -- -- 88
2019-10-02 01:00:00 22.1 8 Oeste 19 Oeste 0 -- -- 86
2019-10-02 00:00:00 22.3 11 Oeste 20 Oeste 0 -- -- 86
2019-10-01 23:00:00 22.7 8 Oeste 21 Oeste 0 -- -- 86
2019-10-01 22:00:00 22.5 9 Oeste 17 Sudoeste 0 -- -- 86
2019-10-01 21:00:00 22.3 8 Sudoeste 14 Sudoeste 0 -- -- 85
2019-10-01 20:00:00 22.5 8 Sudoeste 17 Oeste 0 -- -- 83
2019-10-01 19:00:00 23.6 10 Sudoeste 16 Sudoeste 0 -- -- 78
2019-10-01 18:00:00 26.1 10 Sudoeste 19 Sudoeste 0 -- -- 69
2019-10-01 17:00:00 26.7 10 Sudoeste 20 Sudoeste 0 -- -- 68
2019-10-01 16:00:00 26.9 12 Sudoeste 22 Sudoeste 0 -- -- 67
2019-10-01 15:00:00 27.1 11 Sudoeste 19 Sudoeste 0 -- -- 67
2019-10-01 14:00:00 27.1 11 Sudoeste 22 Sudoeste 0 -- -- 68
2019-10-01 13:00:00 27.2 10 Sudoeste 17 Sur 0 -- -- 70
2019-10-01 12:00:00 26.4 10 Sudoeste 18 Sudoeste 0 -- -- 72
2019-10-01 11:00:00 25.2 10 Sur 19 Sudoeste 0 -- -- 72
2019-10-01 10:00:00 25.9 11 Sudoeste 17 Sudoeste 0 -- -- 75
2019-10-01 09:00:00 24 10 Sudoeste 16 Sudoeste 0 -- -- 85
2019-10-01 08:00:00 21.1 5 Sudoeste 20 Sudoeste 0 -- -- 87
2019-10-01 07:00:00 21.7 10 Oeste 16 Oeste 0 -- -- 87
2019-10-01 06:00:00 21.5 8 Sudoeste 16 Sudoeste 0 -- -- 87
2019-10-01 05:00:00 21.8 9 Sudoeste 18 Sudoeste 0 -- -- 86
2019-10-01 04:00:00 21.9 10 Sudoeste 19 Oeste 0 -- -- 87
2019-10-01 03:00:00 22 10 Sudoeste 17 Sudoeste 0 -- -- 88
2019-10-01 02:00:00 21.8 9 Sudoeste 15 Oeste 0 -- -- 89
2019-10-01 01:00:00 21.9 10 Sudoeste 15 Sudoeste 0 -- -- 88
2019-10-01 00:00:00 21.9 8 Sudoeste 13 Sudoeste 0 -- -- 88
2019-09-30 23:00:00 22 7 Sudoeste 12 Sudoeste 0 -- -- 88
2019-09-30 22:00:00 22 5 Sudoeste 12 Sudoeste 0 -- -- 88
2019-09-30 21:00:00 22 5 Sudoeste 11 Sudoeste 0 -- -- 86
2019-09-30 20:00:00 22.4 4 Sudoeste 12 Sur 0 -- -- 83
2019-09-30 19:00:00 25 7 Sudoeste 12 Sur 0 -- -- 73
2019-09-30 18:00:00 27.4 7 Sudoeste 13 Sur 0 -- -- 67
2019-09-30 17:00:00 28 7 Sudoeste 14 Sudoeste 0 -- -- 65
2019-09-30 16:00:00 27.2 8 Sudoeste 15 Sudeste 0 -- -- 67
2019-09-30 15:00:00 27.5 9 Sudoeste 18 Sudoeste 0 -- -- 65
2019-09-30 14:00:00 27.3 8 Sudoeste 16 Sudoeste 0 -- -- 66
2019-09-30 13:00:00 27.5 8 Sudoeste 17 Sudoeste 0 -- -- 68
2019-09-30 12:00:00 26.1 6 Sudoeste 13 Sur 0 -- -- 72
2019-09-30 11:00:00 24.4 8 Sur 12 Sur 0 -- -- 75
2019-09-30 10:00:00 26.4 6 Sur 10 Sudoeste 0 -- -- 79
2019-09-30 09:00:00 20.9 6 Nordeste 12 Norte 0 -- -- 94
2019-09-30 08:00:00 19.4 8 Nordeste 9 Norte 0 -- -- 93
2019-09-30 07:00:00 20.6 3 Sur 6 Sur 0 -- -- 93
2019-09-30 06:00:00 20.7 4 Sur 10 Sudoeste 0 -- -- 92
2019-09-30 05:00:00 21.2 5 Sudoeste 12 Sudoeste 0 -- -- 92
2019-09-30 04:00:00 21.1 5 Sudoeste 12 Sudoeste 0 -- -- 91
2019-09-30 03:00:00 21.5 7 Sudoeste 13 Sudoeste 0 -- -- 91
2019-09-30 02:00:00 21.5 6 Sudoeste 15 Sudoeste 0 -- -- 91
2019-09-30 01:00:00 21.7 9 Sudoeste 14 Sudoeste 0 -- -- 91
2019-09-30 00:00:00 21.8 8 Sudoeste 13 Sudoeste 0 -- -- 90
2019-09-29 23:00:00 21.9 6 Sudoeste 14 Sudoeste 0 -- -- 89
2019-09-29 22:00:00 22 9 Sur 14 Sudoeste 0 -- -- 88
2019-09-29 21:00:00 22.3 8 Sudoeste 14 Sudoeste 0 -- -- 86
2019-09-29 20:00:00 22.6 7 Sudoeste 13 Sudoeste 0 -- -- 83
2019-09-29 19:00:00 24.5 10 Sudoeste 18 Sur 0 -- -- 75
2019-09-29 18:00:00 26.4 10 Sudoeste 21 Sudoeste 0 -- -- 69
2019-09-29 17:00:00 27.1 12 Sudoeste 22 Sudoeste 0 -- -- 68
2019-09-29 16:00:00 26.4 13 Sur 22 Sur 0 -- -- 71
2019-09-29 15:00:00 26.7 12 Sudoeste 18 Sur 0 -- -- 69
2019-09-29 14:00:00 26.7 12 Sur 19 Sur 0 -- -- 70
2019-09-29 13:00:00 26.8 9 Sur 18 Sur 0 -- -- 69
2019-09-29 12:00:00 26.5 8 Sur 15 Sudoeste 0 -- -- 70
2019-09-29 11:00:00 25.8 9 Sudoeste 14 Sudoeste 0 -- -- 70
2019-09-29 10:00:00 26 7 Sudoeste 14 Sur 0 -- -- 84
2019-09-29 09:00:00 23.7 7 Sur 11 Sur 0 -- -- 93
2019-09-29 08:00:00 20 2 Sudeste 5 Sur 0 -- -- 98
2019-09-29 07:00:00 19.9 2 Sudoeste 8 Nordeste 0 -- -- 97
2019-09-29 06:00:00 20 0 Calma 7 Norte 0 -- -- 97
2019-09-29 05:00:00 19.2 2 Nordeste 6 Nordeste 0 -- -- 96
2019-09-29 04:00:00 19.7 2 Sudeste 5 Este 0 -- -- 95
2019-09-29 03:00:00 19.3 4 Este 8 Este 0 -- -- 94
2019-09-29 02:00:00 19.3 5 Este 9 Este 0 -- -- 94
2019-09-29 01:00:00 19.8 7 Este 9 Este 0 -- -- 92
2019-09-29 00:00:00 20 5 Nordeste 7 Nordeste 0 -- -- 89
2019-09-28 23:00:00 20.7 5 Nordeste 6 Nordeste 0 -- -- 86
2019-09-28 22:00:00 21.9 2 Sudeste 8 Sur 0 -- -- 84
2019-09-28 21:00:00 22.4 3 Sur 9 Sur 0 -- -- 83
2019-09-28 20:00:00 22.8 5 Sur 11 Sur 0 -- -- 80
2019-09-28 19:00:00 24.4 8 Sudoeste 15 Sur 0 -- -- 74
2019-09-28 18:00:00 25.6 12 Sur 19 Sur 0 -- -- 71
2019-09-28 17:00:00 27 12 Sur 25 Sudoeste 0 -- -- 67
2019-09-28 16:00:00 26.7 12 Sur 21 Sudeste 0 -- -- 67
2019-09-28 15:00:00 27.1 14 Sur 26 Sur 0 -- -- 68
2019-09-28 14:00:00 26.9 13 Sudeste 25 Sur 0 -- -- 67
2019-09-28 13:00:00 26.3 16 Sur 23 Sur 0 -- -- 70
2019-09-28 12:00:00 26.8 10 Sudeste 20 Sudeste 0 -- -- 70
2019-09-28 11:00:00 25.8 10 Sudeste 18 Sudeste 0 -- -- 71
2019-09-28 10:00:00 25.6 8 Este 13 Este 0 -- -- 86
2019-09-28 09:00:00 22.2 6 Este 12 Este 0 -- -- 94
2019-09-28 08:00:00 19.4 8 Nordeste 12 Nordeste 0 -- -- 97
2019-09-28 07:00:00 19.3 7 Nordeste 9 Nordeste 0 -- -- 96
2019-09-28 06:00:00 19.6 6 Nordeste 11 Nordeste 0 -- -- 95
2019-09-28 05:00:00 19.6 6 Nordeste 10 Nordeste 0 -- -- 94
2019-09-28 04:00:00 19.7 8 Nordeste 11 Nordeste 0 -- -- 92
2019-09-28 03:00:00 19.8 7 Nordeste 11 Nordeste 0 -- -- 91
2019-09-28 02:00:00 20.1 3 Nordeste 8 Sudeste 0 -- -- 89
2019-09-28 01:00:00 21.6 4 Sudeste 13 Sudeste 0 -- -- 86
2019-09-28 00:00:00 21.8 8 Sudeste 10 Sudeste 0 -- -- 86
2019-09-27 23:00:00 21.8 6 Sudeste 9 Sudeste 0 -- -- 85
2019-09-27 22:00:00 22.3 5 Sudeste 13 Sur 0 -- -- 83
2019-09-27 21:00:00 22.7 9 Sur 16 Sur 0 -- -- 82
2019-09-27 20:00:00 23 9 Sur 17 Sur 0 -- -- 81
2019-09-27 19:00:00 24.5 12 Sur 18 Sur 0 -- -- 74
2019-09-27 18:00:00 26 13 Sur 23 Sur 0 -- -- 70
2019-09-27 17:00:00 26.5 14 Sur 26 Sur 0 -- -- 67
2019-09-27 16:00:00 26.3 14 Sur 26 Sur 0 -- -- 68
2019-09-27 15:00:00 26.7 15 Sur 24 Sur 0 -- -- 67
2019-09-27 14:00:00 26.8 15 Sur 24 Sur 0 -- -- 67
2019-09-27 13:00:00 26.6 15 Sur 22 Sur 0 -- -- 66
2019-09-27 12:00:00 26.7 11 Sur 19 Sur 0 -- -- 69
2019-09-27 11:00:00 26.9 9 Sur 15 Sur 0 -- -- 67
2019-09-27 10:00:00 26.5 8 Sur 11 Sur 0 -- -- 71
2019-09-27 09:00:00 24.3 4 Nordeste 7 Nordeste 0 -- -- 88
2019-09-27 08:00:00 18.9 5 Nordeste 8 Nordeste 0 -- -- 93
2019-09-27 07:00:00 19 4 Este 6 Nordeste 0 -- -- 92
2019-09-27 06:00:00 18.9 4 Nordeste 6 Este 0 -- -- 90
2019-09-27 05:00:00 20 2 Sudeste 4 Este 0 -- -- 90
2019-09-27 04:00:00 19.6 0 Calma 7 Sur 0 -- -- 87
2019-09-27 03:00:00 21 5 Sur 9 Sudoeste 0 -- -- 86
2019-09-27 02:00:00 20.8 6 Sur 11 Sudeste 0 -- -- 87
2019-09-27 01:00:00 20.2 5 Sudeste 8 Sudeste 0 -- -- 88
2019-09-27 00:00:00 20.7 4 Sudeste 9 Sudeste 0 -- -- 86
2019-09-26 23:00:00 21.2 6 Sudeste 11 Sudeste 0 -- -- 83
2019-09-26 22:00:00 21.6 6 Sur 10 Sur 0 -- -- 80
2019-09-26 21:00:00 21.9 5 Sur 9 Sudoeste 0 -- -- 79
2019-09-26 20:00:00 22.5 7 Sur 13 Sudoeste 0 -- -- 75
2019-09-26 19:00:00 24.8 11 Sudoeste 19 Sudoeste 0 -- -- 67
2019-09-26 18:00:00 26 14 Sudoeste 21 Sudoeste 0 -- -- 64
2019-09-26 17:00:00 27.1 14 Sudoeste 22 Sudoeste 0 -- -- 60
2019-09-26 16:00:00 26.4 14 Sudoeste 21 Sur 0 -- -- 64
2019-09-26 15:00:00 26.4 14 Sudoeste 21 Sudoeste 0 -- -- 64
2019-09-26 14:00:00 26.1 12 Sur 21 Sur 0 -- -- 63
2019-09-26 13:00:00 26.6 10 Sur 19 Sur 0 -- -- 61
2019-09-26 12:00:00 25.6 12 Sur 18 Sur 0 -- -- 66
2019-09-26 11:00:00 25.6 10 Sudeste 14 Sudeste 0 -- -- 65
2019-09-26 10:00:00 25.4 4 Sudeste 8 Este 0 -- -- 68
2019-09-26 09:00:00 22.7 5 Nordeste 8 Este 0 -- -- 81
2019-09-26 08:00:00 18.5 4 Nordeste 6 Nordeste 0 -- -- 91
2019-09-26 07:00:00 18.3 3 Nordeste 6 Norte 0 -- -- 91
2019-09-26 06:00:00 18.3 5 Norte 8 Nordeste 0 -- -- 91
2019-09-26 05:00:00 18.3 7 Norte 11 Norte 0 -- -- 90
2019-09-26 04:00:00 18.5 6 Nordeste 10 Norte 0 -- -- 89
2019-09-26 03:00:00 18.9 8 Nordeste 12 Nordeste 0 -- -- 87
2019-09-26 02:00:00 19.2 9 Nordeste 13 Nordeste 0 -- -- 87
2019-09-26 01:00:00 19.1 9 Nordeste 12 Nordeste 0 -- -- 86
2019-09-26 00:00:00 19.4 9 Nordeste 16 Nordeste 0 -- -- 85
2019-09-25 23:00:00 19.9 9 Nordeste 14 Nordeste 0 -- -- 83
2019-09-25 22:00:00 20.5 9 Nordeste 14 Nordeste 0 -- -- 80
2019-09-25 21:00:00 21.2 10 Nordeste 19 Nordeste 0 -- -- 77
2019-09-25 20:00:00 22.3 10 Nordeste 24 Nordeste 0 -- -- 72
2019-09-25 19:00:00 24.5 15 Nordeste 24 Nordeste 0 -- -- 66
2019-09-25 18:00:00 26.1 14 Nordeste 26 Nordeste 0 -- -- 63
2019-09-25 17:00:00 26 12 Este 27 Este 0 -- -- 66
2019-09-25 16:00:00 28.4 10 Sudoeste 18 Sudoeste 0 -- -- 60
2019-09-25 15:00:00 28.5 13 Oeste 20 Sudoeste 0 -- -- 66
2019-09-25 14:00:00 28.5 12 Sudoeste 19 Sudoeste 0 -- -- 66
2019-09-25 13:00:00 28.5 11 Sudoeste 17 Sudoeste 0 -- -- 67
2019-09-25 12:00:00 27.5 8 Oeste 15 Oeste 0 -- -- 73
2019-09-25 11:00:00 26 6 Sudoeste 13 Oeste 0 -- -- 75
2019-09-25 10:00:00 24.9 9 Sudoeste 14 Sudoeste 0 -- -- 84
2019-09-25 09:00:00 23.7 5 Sudoeste 12 Sudoeste 0 -- -- 91
2019-09-25 08:00:00 22.5 7 Sudoeste 15 Sudoeste 0 -- -- 91
2019-09-25 07:00:00 22.5 9 Sudoeste 17 Sudoeste 0 -- -- 91
2019-09-25 06:00:00 22.3 9 Sudoeste 14 Sudoeste 0 -- -- 91
2019-09-25 05:00:00 21.9 8 Sudoeste 15 Sudoeste 0 -- -- 91
2019-09-25 04:00:00 21.8 9 Sudoeste 14 Sudoeste 0 -- -- 90
2019-09-25 03:00:00 21.8 9 Sudoeste 15 Oeste 0 -- -- 89
2019-09-25 02:00:00 22 10 Sudoeste 20 Oeste 0 -- -- 88
2019-09-25 01:00:00 22.1 12 Oeste 24 Oeste 0 -- -- 87
2019-09-25 00:00:00 22.4 14 Oeste 26 Sudoeste 0 -- -- 86
2019-09-24 23:00:00 22.5 15 Sudoeste 28 Sudoeste 0 -- -- 84
2019-09-24 22:00:00 22.7 14 Sudoeste 25 Sudoeste 0 -- -- 82
2019-09-24 21:00:00 22.9 14 Sudoeste 26 Oeste 0 -- -- 81
2019-09-24 20:00:00 23.1 14 Sudoeste 27 Oeste 0 -- -- 81
2019-09-24 19:00:00 25 15 Sudoeste 28 Sudoeste 0 -- -- 75
2019-09-24 18:00:00 26.7 13 Sudoeste 25 Oeste 0 -- -- 68
2019-09-24 17:00:00 26.4 14 Sudoeste 26 Sudoeste 0 -- -- 70
2019-09-24 16:00:00 26.8 16 Sudoeste 27 Sudoeste 0 -- -- 69
2019-09-24 15:00:00 27.4 15 Sudoeste 25 Sudoeste 0 -- -- 68
2019-09-24 14:00:00 27.3 16 Sudoeste 27 Sudoeste 0 -- -- 67
2019-09-24 13:00:00 26.9 15 Sudoeste 26 Sudoeste 0 -- -- 69
2019-09-24 12:00:00 26.5 13 Oeste 24 Oeste 0 -- -- 72
2019-09-24 11:00:00 26.9 13 Sudoeste 31 Sudoeste 0 -- -- 69
2019-09-24 10:00:00 26.4 11 Sudoeste 20 Sudoeste 0 -- -- 72
2019-09-24 09:00:00 24.7 12 Sudoeste 19 Sudoeste 0 -- -- 82
2019-09-24 08:00:00 21.4 9 Oeste 17 Sudoeste 0 -- -- 89
2019-09-24 07:00:00 21 8 Oeste 14 Sudoeste 0 -- -- 89
2019-09-24 06:00:00 21 8 Oeste 14 Sudoeste 0 -- -- 88
2019-09-24 05:00:00 21 9 Sudoeste 15 Sudoeste 0 -- -- 88
2019-09-24 04:00:00 21.1 6 Sudoeste 12 Sudoeste 0 -- -- 87
2019-09-24 03:00:00 21.1 6 Oeste 11 Sudoeste 0 -- -- 86
2019-09-24 02:00:00 21.3 6 Sudoeste 10 Sudoeste 0 -- -- 85
2019-09-24 01:00:00 21.4 3 Sudoeste 8 Sudoeste 0 -- -- 85
2019-09-24 00:00:00 21.4 3 Sudoeste 7 Sudoeste 0 -- -- 83
2019-09-23 23:00:00 21.7 0 Calma 8 Sudoeste 0 -- -- 82
2019-09-23 22:00:00 22 4 Oeste 10 Sudoeste 0 -- -- 82
2019-09-23 21:00:00 22.1 5 Sudoeste 9 Sudoeste 0 -- -- 80
2019-09-23 20:00:00 22.7 3 Sudeste 9 Sudeste 0 -- -- 75
2019-09-23 19:00:00 23.9 7 Sudeste 15 Sudeste 0 -- -- 70
2019-09-23 18:00:00 24.8 9 Sudeste 21 Sudeste 0 -- -- 68
2019-09-23 17:00:00 25.6 14 Sudeste 25 Este 0 -- -- 64
2019-09-23 16:00:00 26.2 15 Sudeste 27 Sudeste 0 -- -- 63
2019-09-23 15:00:00 26.8 14 Sudeste 24 Sudeste 0 -- -- 60
2019-09-23 14:00:00 27 13 Sudeste 21 Sur 0 -- -- 59
2019-09-23 13:00:00 25.5 10 Este 24 Nordeste 0 -- -- 62
2019-09-23 12:00:00 26.6 14 Nordeste 28 Este 0 -- -- 59
2019-09-23 11:00:00 25.4 17 Nordeste 30 Nordeste 0 -- -- 66
2019-09-23 10:00:00 23.4 17 Este 28 Nordeste 0 -- -- 78
2019-09-23 09:00:00 21.4 15 Nordeste 26 Nordeste 0 -- -- 92
2019-09-23 08:00:00 20.6 12 Nordeste 27 Nordeste 0 -- -- 94
2019-09-23 07:00:00 20.5 12 Nordeste 18 Nordeste 0 -- -- 94
2019-09-23 06:00:00 21.5 4 Norte 6 Norte 0 -- -- 93
2019-09-23 05:00:00 21.5 5 Norte 8 Noroeste 0 -- -- 93
2019-09-23 04:00:00 22.1 4 Sudoeste 7 Sudoeste 0 -- -- 92
2019-09-23 03:00:00 22.1 4 Sudoeste 14 Sudoeste 0 -- -- 91
2019-09-23 02:00:00 22.7 9 Oeste 17 Oeste 0 -- -- 90
2019-09-23 01:00:00 22.8 10 Oeste 18 Sudoeste 0 -- -- 89
2019-09-23 00:00:00 23 10 Oeste 22 Oeste 0 -- -- 87
2019-09-22 23:00:00 23 12 Oeste 21 Sudoeste 0 -- -- 86
2019-09-22 22:00:00 23 13 Sudoeste 22 Sudoeste 0 -- -- 86
2019-09-22 21:00:00 23.3 12 Sudoeste 24 Sudoeste 0 -- -- 85
2019-09-22 20:00:00 23.5 12 Sudoeste 26 Sudoeste 0 -- -- 83
2019-09-22 19:00:00 24.6 13 Sudoeste 23 Sudoeste 0 -- -- 76
2019-09-22 18:00:00 26.8 13 Sudoeste 28 Sudoeste 0 -- -- 73
2019-09-22 17:00:00 27.4 13 Sudoeste 27 Oeste 0 -- -- 71
2019-09-22 16:00:00 26.8 17 Sudoeste 26 Sudoeste 0 -- -- 74
2019-09-22 15:00:00 27.4 13 Sudoeste 21 Sudoeste 0 -- -- 73
2019-09-22 14:00:00 27.7 12 Oeste 20 Sudoeste 0 -- -- 73
2019-09-22 13:00:00 27.7 15 Oeste 27 Sudoeste 0 -- -- 75
2019-09-22 12:00:00 26.9 13 Sudoeste 24 Sudoeste 0 -- -- 76
2019-09-22 11:00:00 26 14 Sudoeste 22 Oeste 0 -- -- 78
2019-09-22 10:00:00 24.9 13 Oeste 19 Sudoeste 0 -- -- 85
2019-09-22 09:00:00 23.5 10 Sudoeste 19 Sudoeste 0 -- -- 89
2019-09-22 08:00:00 22.7 11 Oeste 19 Oeste 0 -- -- 88
2019-09-22 07:00:00 22.7 11 Oeste 23 Oeste 0 -- -- 87
2019-09-22 06:00:00 22.8 15 Oeste 28 Oeste 0 -- -- 87
2019-09-22 05:00:00 22.9 14 Oeste 28 Oeste 0 -- -- 89
2019-09-22 04:00:00 23 16 Oeste 26 Oeste 0 -- -- 89
2019-09-22 03:00:00 23.2 14 Oeste 25 Oeste 0 -- -- 89
2019-09-22 02:00:00 23.2 10 Oeste 19 Oeste 0 -- -- 89
2019-09-22 01:00:00 23.5 10 Oeste 22 Oeste 0 -- -- 87
2019-09-22 00:00:00 23.7 8 Oeste 15 Noroeste 0 -- -- 83
2019-09-21 23:00:00 23.9 10 Noroeste 22 Oeste 0 -- -- 81
2019-09-21 22:00:00 23.6 12 Noroeste 20 Oeste 0 -- -- 83
2019-09-21 21:00:00 24 10 Noroeste 22 Noroeste 0 -- -- 80
2019-09-21 20:00:00 24.5 11 Noroeste 19 Noroeste 0 -- -- 78
2019-09-21 19:00:00 25.6 10 Oeste 17 Sudoeste 0 -- -- 76
2019-09-21 18:00:00 27.6 10 Oeste 15 Sudoeste 0 -- -- 74
2019-09-21 17:00:00 29.6 9 Sudoeste 19 Sur 0 -- -- 65
2019-09-21 16:00:00 29.4 11 Sudoeste 20 Sudoeste 0 -- -- 64
2019-09-21 15:00:00 30.3 9 Sudoeste 20 Sudoeste 0 -- -- 60
2019-09-21 14:00:00 28.7 9 Sudeste 24 Sudeste 0 -- -- 67
2019-09-21 13:00:00 25.5 8 Sudeste 34 Este 0 -- -- 88
2019-09-21 12:00:00 25.6 24 Este 46 Este 0 -- -- 86
2019-09-21 11:00:00 25.3 21 Este 39 Este 0 -- -- 91
2019-09-21 10:00:00 25.1 28 Este 44 Este 0 -- -- 92
2019-09-21 09:00:00 23.4 28 Este 42 Sudeste 0 -- -- 94
2019-09-21 08:00:00 22.7 8 Sudeste 31 Nordeste 0 -- -- 93
2019-09-21 07:00:00 22.3 13 Nordeste 23 Nordeste 0.2 -- -- 92
2019-09-21 06:00:00 23.1 11 Este 21 Nordeste 0 -- -- 90
2019-09-21 05:00:00 22.7 11 Este 22 Este 0 -- -- 90
2019-09-21 04:00:00 22.3 13 Nordeste 22 Nordeste 0 -- -- 90
2019-09-21 03:00:00 22.1 14 Nordeste 26 Este 0 -- -- 90
2019-09-21 02:00:00 22 14 Este 23 Este 0 -- -- 89
2019-09-21 01:00:00 21.7 11 Este 17 Este 0 -- -- 89
2019-09-21 00:00:00 21.6 10 Nordeste 18 Nordeste 0 -- -- 88
2019-09-20 23:00:00 21.8 10 Nordeste 15 Este 0 -- -- 86
2019-09-20 22:00:00 22.2 10 Este 23 Este 0 -- -- 84
2019-09-20 21:00:00 22.7 9 Este 27 Nordeste 0 -- -- 81
2019-09-20 20:00:00 23.2 16 Este 28 Este 0 -- -- 79
2019-09-20 19:00:00 24.1 20 Este 32 Sudeste 0 -- -- 76
2019-09-20 18:00:00 25.3 22 Este 40 Este 0 -- -- 68
2019-09-20 17:00:00 26.2 24 Este 45 Sudeste 0 -- -- 64
2019-09-20 16:00:00 27.4 24 Sudeste 42 Sudeste 0 -- -- 61
2019-09-20 15:00:00 28.3 23 Sudeste 36 Sudeste 0 -- -- 58
2019-09-20 14:00:00 28.5 19 Sudeste 32 Sudeste 0 -- -- 60
2019-09-20 13:00:00 28.5 10 Este 24 Este 0 -- -- 58
2019-09-20 12:00:00 26.8 14 Este 25 Este 0 -- -- 65
2019-09-20 11:00:00 26.6 14 Este 23 Este 0 -- -- 70
2019-09-20 10:00:00 25.5 14 Este 22 Nordeste 0 -- -- 82
2019-09-20 09:00:00 22.9 10 Nordeste 17 Nordeste 0 -- -- 93
2019-09-20 08:00:00 19.8 10 Nordeste 17 Nordeste 0 -- -- 97
2019-09-20 07:00:00 19.7 9 Nordeste 15 Nordeste 0 -- -- 96
2019-09-20 06:00:00 20 10 Nordeste 18 Nordeste 0 -- -- 95
2019-09-20 05:00:00 20.2 10 Nordeste 17 Este 0 -- -- 95
2019-09-20 04:00:00 20.4 10 Nordeste 16 Nordeste 0 -- -- 94
2019-09-20 03:00:00 20.5 9 Nordeste 14 Nordeste 0 -- -- 93
2019-09-20 02:00:00 20.8 9 Nordeste 13 Nordeste 0 -- -- 92
2019-09-20 01:00:00 21 9 Nordeste 12 Nordeste 0 -- -- 91
2019-09-20 00:00:00 21.1 8 Nordeste 12 Norte 0 -- -- 90
2019-09-19 23:00:00 21.6 8 Nordeste 12 Este 0 -- -- 89
2019-09-19 22:00:00 22.3 8 Este 13 Este 0 -- -- 87
2019-09-19 21:00:00 23.1 9 Sudeste 13 Sudeste 0 -- -- 85
2019-09-19 20:00:00 23.6 9 Sudeste 17 Sudeste 0 -- -- 83
2019-09-19 19:00:00 24.8 10 Sudeste 19 Sudeste 0 -- -- 78
2019-09-19 18:00:00 25.5 13 Sudeste 25 Sudeste 0 -- -- 74
2019-09-19 17:00:00 26.5 12 Sudeste 20 Sudeste 0 -- -- 73
2019-09-19 16:00:00 27.5 12 Sur 17 Sur 0 -- -- 65
2019-09-19 15:00:00 28 9 Sudoeste 17 Sudoeste 0 -- -- 63
2019-09-19 14:00:00 27.6 11 Sur 17 Sudoeste 0 -- -- 63
2019-09-19 13:00:00 27.8 8 Sudoeste 16 Sudoeste 0 -- -- 62
2019-09-19 12:00:00 28 10 Sudoeste 15 Sudoeste 0 -- -- 63
2019-09-19 11:00:00 26.7 9 Oeste 13 Oeste 0 -- -- 66
2019-09-19 10:00:00 26.1 6 Norte 12 Norte 0 -- -- 72
2019-09-19 09:00:00 22.3 8 Norte 13 Norte 0 -- -- 87
2019-09-19 08:00:00 20.3 4 Nordeste 8 Norte 0 -- -- 92
2019-09-19 07:00:00 20.1 7 Norte 11 Nordeste 0 -- -- 92
2019-09-19 06:00:00 20.2 6 Norte 10 Nordeste 0 -- -- 91
2019-09-19 05:00:00 20 9 Nordeste 13 Nordeste 0 -- -- 90
2019-09-19 04:00:00 20.6 5 Norte 9 Norte 0 -- -- 89
2019-09-19 03:00:00 20.8 0 Calma 7 Nordeste 0 -- -- 89
2019-09-19 02:00:00 20.8 7 Nordeste 12 Nordeste 0 -- -- 88
2019-09-19 01:00:00 20.7 8 Nordeste 12 Nordeste 0 -- -- 89
2019-09-19 00:00:00 21.1 5 Nordeste 9 Nordeste 0 -- -- 88
2019-09-18 23:00:00 21.6 6 Este 9 Nordeste 0 -- -- 87
2019-09-18 22:00:00 22.3 5 Este 7 Este 0 -- -- 83
2019-09-18 21:00:00 22.9 4 Sudoeste 5 Sudoeste 0 -- -- 81
2019-09-18 20:00:00 24 2 Sudoeste 5 Oeste 0 -- -- 75
2019-09-18 19:00:00 26.4 4 Oeste 14 Sudoeste 0 -- -- 69
2019-09-18 18:00:00 27.8 9 Sudoeste 18 Oeste 0 -- -- 64
2019-09-18 17:00:00 28.1 12 Sudoeste 17 Sudoeste 0 -- -- 65
2019-09-18 16:00:00 27.1 12 Oeste 21 Sudoeste 0 -- -- 68
2019-09-18 15:00:00 26.6 15 Oeste 21 Oeste 0 -- -- 70
2019-09-18 14:00:00 27.5 11 Sudoeste 17 Sudoeste 0 -- -- 68
2019-09-18 13:00:00 27 13 Sudoeste 18 Sudoeste 0 -- -- 71
2019-09-18 12:00:00 27.3 11 Sudoeste 21 Sur 0 -- -- 73
2019-09-18 11:00:00 25.1 10 Sudeste 24 Este 0 -- -- 81
2019-09-18 10:00:00 25.1 11 Este 21 Este 0 -- -- 83
2019-09-18 09:00:00 23.1 8 Este 15 Este 0 -- -- 91
2019-09-18 08:00:00 20.1 8 Nordeste 12 Nordeste 0 -- -- 95
2019-09-18 07:00:00 19.3 9 Nordeste 13 Nordeste 0 -- -- 94
2019-09-18 06:00:00 19.7 7 Nordeste 12 Norte 0 -- -- 94
2019-09-18 05:00:00 20.3 8 Norte 12 Noroeste 0 -- -- 94
2019-09-18 04:00:00 20.9 7 Noroeste 14 Noroeste 0 -- -- 94
2019-09-18 03:00:00 21 6 Noroeste 10 Noroeste 0 -- -- 93
2019-09-18 02:00:00 21.9 5 Noroeste 17 Oeste 0 -- -- 91
2019-09-18 01:00:00 22.2 8 Oeste 18 Sudoeste 0 -- -- 91
2019-09-18 00:00:00 22.4 7 Oeste 17 Sudoeste 0 -- -- 91
2019-09-17 23:00:00 22.6 7 Sudoeste 13 Sudoeste 0 -- -- 91
2019-09-17 22:00:00 22.5 4 Oeste 12 Oeste 0 -- -- 90
2019-09-17 21:00:00 22.9 10 Sudoeste 18 Sudoeste 0 -- -- 89
2019-09-15 18:00:00 -- -- -- -- -- -- -- -- --
2019-09-15 17:00:00 28.6 26 Este 42 Sudeste 0 -- -- 63
2019-09-15 16:00:00 28.5 30 Este 42 Este 0 -- -- 64
2019-09-15 15:00:00 28.9 28 Este 40 Este 0 -- -- 59
2019-09-15 14:00:00 29.1 26 Sudeste 43 Este 0 -- -- 63
2019-09-15 13:00:00 29 29 Este 51 Este 0 -- -- 61
2019-09-15 12:00:00 28 29 Este 46 Este 0 -- -- 69
2019-09-15 11:00:00 28.2 21 Este 39 Nordeste 0 -- -- 70
2019-09-15 10:00:00 26.8 21 Este 34 Nordeste 0 -- -- 78
2019-09-15 09:00:00 24.4 18 Nordeste 31 Este 0 -- -- 89
2019-09-15 08:00:00 22.9 20 Nordeste 35 Nordeste 0 -- -- 90
2019-09-15 07:00:00 22.7 21 Nordeste 34 Nordeste 0 -- -- 89
2019-09-15 06:00:00 22.8 20 Nordeste 35 Nordeste 0 -- -- 88
2019-09-15 05:00:00 22.8 20 Nordeste 33 Nordeste 0 -- -- 88
2019-09-15 04:00:00 22.7 15 Nordeste 35 Nordeste 0 -- -- 88
2019-09-15 03:00:00 22.7 16 Nordeste 27 Nordeste 0 -- -- 89
2019-09-15 02:00:00 23.1 12 Nordeste 40 Nordeste 0 -- -- 88
2019-09-15 01:00:00 23.3 26 Nordeste 44 Nordeste 0 -- -- 86
2019-09-15 00:00:00 23.1 24 Este 42 Nordeste 0 -- -- 86